Danforth, South Dakota
Current Conditions -  °F | °C
As of 2:55 AM on Wednesday 28 Jan 2015 (Local Time) from KHON Reporting Station
Clear Clear  
Wind Chill: -4°   Ceiling: Unl
Heat Index:   Visibility: 10mi
Dew Point: -1°   Wind: 14mph
Humidity: 85%   Direction: 150°SSE
Pressure: 29.78"   Gusts: NA
Location:  44.3714°N, 98.681°W
Report Text: KHON 280855Z AUTO 15012KT 10SM CLR 01/M01 A2978 RMK AO2 SLP094 T00111011 56027
Loading
Personal Weather Stations






























Interactive Weather Map New forecast layout! Learn more

10-Day Weather Forecast

Advertisements
Track Severe Weather on mobile